Espyville, Pennsylvania
Current Conditions -  °F | °C
As of 10:17 PM on Monday 26 Jan 2015 (Local Time) from KGKJ Reporting Station
Overcast Overcast  
Wind Chill: 11°   Ceiling: 1700
Heat Index: 18°   Visibility: 10mi
Dew Point: 14°   Wind: 5mph
Humidity: 84%   Direction: 340°NNW
Pressure: 29.82"   Gusts: NA
Location:  41.6811°N, 80.4288°W
Report Text: KGKJ 270317Z AUTO 34004KT 10SM SCT009 OVC017 M08/M10 A2982 RMK AO2 T10781100 TSNO
Loading
Personal Weather Stations






























Interactive Weather Map New forecast layout! Learn more

10-Day Weather Forecast

Advertisements
Track Severe Weather on mobile